This is the latest recevied weather packets stored in our database for station/object GW1476. If no packets are shown the sender has not sent any weather packets the latest 10 day(s).
| Time | Temp. | Humidity | Pressure | Rain* | Wind** | Luminosity | Snow |
|---|---|---|---|---|---|---|---|
| 1777297734 | 17.78° C | 74% | 1022 hPa | 0 mm | - | - | - |
| 1777297359 | 17.78° C | 74% | 1022 hPa | 0 mm | - | - | - |
| 1777296286 | 16.67° C | 76% | 1022.3 hPa | 0 mm | - | - | - |
| 1777295563 | 16.11° C | 78% | 1022 hPa | 0 mm | - | - | - |
| 1777291238 | 10.56° C | 99% | 1022.3 hPa | 0 mm | - | - | - |
| 1777289802 | 8.33° C | 99% | 1022.6 hPa | 0 mm | - | - | - |
| 1777285834 | 7.78° C | 99% | 1022 hPa | 0 mm | - | - | - |
| 1777283679 | 8.33° C | 99% | 1021.3 hPa | 0 mm | - | - | - |
| 1777278630 | 8.89° C | 99% | 1020.3 hPa | 0 mm | - | - | - |
| 1777276462 | 8.89° C | 99% | 1019.9 hPa | 0 mm | - | - | - |
| 1777274670 | 8.89° C | 99% | 1020.3 hPa | 0 mm | - | - | - |
| 1777274310 | 8.89° C | 99% | 1020.3 hPa | 0 mm | - | - | - |
| 1777273610 | 8.89° C | 99% | 1020.3 hPa | 0 mm | - | - | - |
| 1777271065 | 8.89° C | 99% | 1020.3 hPa | 0 mm | - | - | - |
| 1777270357 | 8.89° C | 99% | 1020.3 hPa | 0 mm | - | - | - |
| 1777269979 | 8.89° C | 99% | 1020.6 hPa | 0 mm | - | - | - |
| 1777269623 | 8.89° C | 99% | 1020.6 hPa | 0 mm | - | - | - |
| 1777267126 | 9.44° C | 99% | 1020.9 hPa | 0 mm | - | - | - |
| 1777266733 | 10° C | 99% | 1020.9 hPa | 0 mm | - | - | - |
| 1777263508 | 10.56° C | 99% | 1020.9 hPa | 0 mm | - | - | - |
| 1777254873 | 13.33° C | 99% | 1020.3 hPa | 0 mm | - | - | - |
| 1777254135 | 13.33° C | 97% | 1019.9 hPa | 0 mm | - | - | - |
| 1777253771 | 13.89° C | 97% | 1019.9 hPa | 0 mm | - | - | - |
| 1777247674 | 18.89° C | 71% | 1018.6 hPa | 0 mm | - | - | - |
| 1777245158 | 22.22° C | 62% | 1018.2 hPa | 0 mm | - | - | - |
* Rain since midnight (hover to see other rain measurements)
** Current wind speed in m/s (hover to see current wind gust speed)